Time;durP1;ratioP1;P1;durP2;ratioP2;P2;SDS_P1;SDS_P2;PMS_P1;PMS_P2;Temp;Humidity;BMP_temperature;BMP_pressure;BME280_temperature;BME280_humidity;BME280_pressure;Samples;Min_cycle;Max_cycle;Signal;HPM_P1;HPM_P2
2022/07/07 00:00:40;;;;;;;;;;;16.20;90.50;;;;;;5023528;28;19923;-77
2022/07/07 00:03:05;;;;;;;;;;;16.20;90.00;;;;;;5028363;28;19916;-78
2022/07/07 00:05:31;;;;;;;;;;;16.30;89.30;;;;;;5016066;28;19909;-78
2022/07/07 00:07:56;;;;;;;;;;;16.30;89.30;;;;;;5027185;28;19909;-76
2022/07/07 00:10:21;;;;;;;;;;;16.30;89.00;;;;;;5027705;28;19920;-77
2022/07/07 00:12:47;;;;;;;;;;;16.30;88.60;;;;;;5028956;28;19924;-77
2022/07/07 00:15:12;;;;;;;;;;;16.30;88.40;;;;;;5041723;28;20323;-78
2022/07/07 00:17:38;;;;;;;;;;;16.40;87.90;;;;;;5028436;28;19909;-77
2022/07/07 00:20:04;;;;;;;;;;;16.40;87.60;;;;;;5030184;28;20356;-77
2022/07/07 00:22:29;;;;;;;;;;;16.40;87.30;;;;;;5027006;28;19945;-77
2022/07/07 00:24:55;;;;;;;;;;;16.40;87.10;;;;;;5028311;28;20370;-78
2022/07/07 00:27:20;;;;;;;;;;;16.50;86.40;;;;;;5027817;28;20004;-78
2022/07/07 00:29:46;;;;;;;;;;;16.50;86.20;;;;;;5029639;28;19924;-78
2022/07/07 00:32:11;;;;;;;;;;;16.50;86.00;;;;;;5018680;28;19909;-78
2022/07/07 00:34:37;;;;;;;;;;;16.50;85.80;;;;;;5025345;28;20000;-78
2022/07/07 00:37:02;;;;;;;;;;;16.50;85.60;;;;;;5028227;28;19917;-78
2022/07/07 00:39:28;;;;;;;;;;;16.50;85.60;;;;;;5027974;28;19916;-77
2022/07/07 00:41:54;;;;;;;;;;;16.50;84.90;;;;;;5024379;28;19913;-78
2022/07/07 00:44:20;;;;;;;;;;;16.50;84.50;;;;;;5028135;28;20335;-76
2022/07/07 00:46:47;;;;;;;;;;;16.50;83.60;;;;;;5028047;28;19909;-77
2022/07/07 00:49:13;;;;;;;;;;;16.50;83.80;;;;;;5027017;28;20340;-78
2022/07/07 00:51:42;;;;;;;;;;;16.50;83.40;;;;;;5028622;28;20287;-76
2022/07/07 00:54:08;;;;;;;;;;;16.50;83.10;;;;;;5030027;28;20279;-78
2022/07/07 00:56:34;;;;;;;;;;;16.50;83.40;;;;;;5037470;28;20364;-76
2022/07/07 00:59:02;;;;;;;;;;;16.50;83.60;;;;;;5043269;28;19924;-78
2022/07/07 01:01:27;;;;;;;;;;;16.50;83.90;;;;;;5041155;28;19939;-79
2022/07/07 01:03:53;;;;;;;;;;;16.50;84.30;;;;;;5050424;28;19927;-78
2022/07/07 01:06:19;;;;;;;;;;;16.50;84.50;;;;;;5048556;28;19912;-77
2022/07/07 01:08:45;;;;;;;;;;;16.50;85.30;;;;;;5042211;28;19916;-77
2022/07/07 01:11:10;;;;;;;;;;;16.50;86.50;;;;;;5039991;28;19959;-78
2022/07/07 01:13:38;;;;;;;;;;;16.30;89.60;;;;;;5042333;28;20311;-77
2022/07/07 01:16:03;;;;;;;;;;;16.30;91.00;;;;;;5041555;28;20335;-79
2022/07/07 01:18:29;;;;;;;;;;;16.10;92.40;;;;;;5047142;28;19943;-79
2022/07/07 01:20:55;;;;;;;;;;;16.00;94.10;;;;;;5045132;28;20375;-78
2022/07/07 01:23:20;;;;;;;;;;;15.90;95.80;;;;;;5047374;28;20035;-78
2022/07/07 01:25:46;;;;;;;;;;;15.80;98.00;;;;;;5047136;28;20600;-78
2022/07/07 01:28:11;;;;;;;;;;;15.70;98.40;;;;;;5042252;28;19909;-79
2022/07/07 01:30:37;;;;;;;;;;;15.70;99.60;;;;;;5049570;28;19916;-76
2022/07/07 01:33:02;;;;;;;;;;;15.60;99.90;;;;;;5051264;28;19916;-79
2022/07/07 01:35:28;;;;;;;;;;;15.50;99.90;;;;;;5048347;28;19917;-77
2022/07/07 01:37:53;;;;;;;;;;;15.40;99.90;;;;;;5045534;28;20322;-76
2022/07/07 01:40:19;;;;;;;;;;;15.30;99.90;;;;;;5047377;28;19919;-78
2022/07/07 01:42:44;;;;;;;;;;;15.30;99.90;;;;;;5048160;28;20002;-79
2022/07/07 01:45:09;;;;;;;;;;;15.30;99.90;;;;;;5043197;28;19913;-77
2022/07/07 01:47:35;;;;;;;;;;;15.20;99.90;;;;;;5049205;28;19909;-76
2022/07/07 01:50:00;;;;;;;;;;;15.10;99.90;;;;;;5050326;28;19909;-78
2022/07/07 01:52:26;;;;;;;;;;;15.10;99.90;;;;;;5047803;28;20359;-79
2022/07/07 01:54:51;;;;;;;;;;;15.00;99.90;;;;;;5045260;28;19971;-79
2022/07/07 01:57:17;;;;;;;;;;;15.00;99.90;;;;;;5048824;28;19908;-79
2022/07/07 01:59:42;;;;;;;;;;;14.90;99.90;;;;;;5044936;28;19917;-79
2022/07/07 02:02:08;;;;;;;;;;;14.90;99.90;;;;;;5045708;28;20008;-79
2022/07/07 02:04:33;;;;;;;;;;;14.70;99.90;;;;;;5033799;28;19909;-79
2022/07/07 02:06:58;;;;;;;;;;;14.70;99.90;;;;;;5052303;28;19912;-79
2022/07/07 02:09:24;;;;;;;;;;;14.70;99.90;;;;;;5047516;28;19986;-78
2022/07/07 02:11:49;;;;;;;;;;;14.60;99.90;;;;;;5041516;28;20063;-78
2022/07/07 02:14:15;;;;;;;;;;;14.60;99.90;;;;;;5044228;28;19909;-79
2022/07/07 02:16:40;;;;;;;;;;;14.50;99.90;;;;;;5044232;28;20009;-79
2022/07/07 02:19:06;;;;;;;;;;;14.50;99.90;;;;;;5057786;28;19908;-79
2022/07/07 02:21:32;;;;;;;;;;;14.50;99.90;;;;;;5049066;28;20279;-78
2022/07/07 02:23:58;;;;;;;;;;;14.40;99.90;;;;;;5046210;28;19905;-78
2022/07/07 02:26:24;;;;;;;;;;;14.40;99.90;;;;;;5036548;28;19992;-79
2022/07/07 02:28:49;;;;;;;;;;;14.50;99.90;;;;;;5044421;28;19915;-79
2022/07/07 02:31:15;;;;;;;;;;;14.50;99.90;;;;;;5046934;28;20593;-78
2022/07/07 02:33:41;;;;;;;;;;;14.40;99.90;;;;;;5048917;28;19909;-79
2022/07/07 02:36:06;;;;;;;;;;;14.30;99.90;;;;;;5048331;28;19909;-79
2022/07/07 02:38:32;;;;;;;;;;;14.30;99.90;;;;;;5066002;28;19912;-78
2022/07/07 02:40:58;;;;;;;;;;;14.20;99.90;;;;;;5050338;28;20422;-78
2022/07/07 02:43:24;;;;;;;;;;;14.20;99.90;;;;;;5052358;28;20004;-78
2022/07/07 02:45:50;;;;;;;;;;;14.40;99.90;;;;;;5037955;28;19932;-78
2022/07/07 02:48:17;;;;;;;;;;;14.40;99.90;;;;;;5047403;28;20288;-78
2022/07/07 02:50:42;;;;;;;;;;;14.30;99.90;;;;;;5054343;28;19931;-78
2022/07/07 02:53:08;;;;;;;;;;;14.30;99.90;;;;;;5051267;28;19909;-78
2022/07/07 02:55:34;;;;;;;;;;;14.30;99.90;;;;;;5055652;28;19917;-78
2022/07/07 02:58:00;;;;;;;;;;;14.40;99.90;;;;;;5061192;28;19924;-78
2022/07/07 03:00:25;;;;;;;;;;;14.40;99.90;;;;;;5048897;28;19963;-78
2022/07/07 03:02:51;;;;;;;;;;;14.50;99.90;;;;;;5048967;28;19913;-78
2022/07/07 03:05:17;;;;;;;;;;;14.50;99.90;;;;;;5043799;28;19913;-78
2022/07/07 03:07:42;;;;;;;;;;;14.30;99.90;;;;;;5038213;28;20383;-78
2022/07/07 03:10:08;;;;;;;;;;;14.40;99.90;;;;;;5057429;28;19961;-78
2022/07/07 03:12:33;;;;;;;;;;;14.50;99.90;;;;;;5049521;28;19970;-79
2022/07/07 03:14:59;;;;;;;;;;;14.30;99.90;;;;;;5054283;28;20026;-77
2022/07/07 03:17:24;;;;;;;;;;;14.30;99.90;;;;;;5049708;28;19924;-78
2022/07/07 03:19:50;;;;;;;;;;;14.20;99.90;;;;;;5047460;28;19916;-78
2022/07/07 03:22:15;;;;;;;;;;;14.20;99.90;;;;;;5061112;28;19916;-79
2022/07/07 03:24:41;;;;;;;;;;;14.30;99.90;;;;;;5047026;28;19916;-78
2022/07/07 03:27:06;;;;;;;;;;;14.40;99.90;;;;;;5050819;28;20271;-79
2022/07/07 03:29:32;;;;;;;;;;;14.40;99.90;;;;;;5051250;28;19908;-78
2022/07/07 03:31:57;;;;;;;;;;;14.50;99.90;;;;;;5055474;28;20255;-78
2022/07/07 03:34:23;;;;;;;;;;;14.50;99.90;;;;;;5047385;28;19919;-78
2022/07/07 03:36:48;;;;;;;;;;;14.50;99.90;;;;;;5044659;28;20362;-78
2022/07/07 03:39:13;;;;;;;;;;;14.50;99.90;;;;;;5046997;28;19909;-78
2022/07/07 03:41:39;;;;;;;;;;;14.50;99.90;;;;;;5046714;28;19920;-78
2022/07/07 03:44:04;;;;;;;;;;;14.40;99.90;;;;;;5049504;28;19947;-78
2022/07/07 03:46:30;;;;;;;;;;;14.40;99.90;;;;;;5059695;28;19963;-78
2022/07/07 03:48:56;;;;;;;;;;;14.20;99.90;;;;;;5036793;28;20007;-78
2022/07/07 03:51:21;;;;;;;;;;;14.30;99.90;;;;;;5034670;28;19909;-79
2022/07/07 03:53:47;;;;;;;;;;;14.30;99.90;;;;;;5048851;28;19909;-80
2022/07/07 03:56:12;;;;;;;;;;;14.30;99.90;;;;;;5036096;28;19971;-79
2022/07/07 03:58:38;;;;;;;;;;;14.20;99.90;;;;;;5034640;28;19976;-79
2022/07/07 04:01:03;;;;;;;;;;;14.20;99.90;;;;;;5034709;28;19909;-79
2022/07/07 04:03:29;;;;;;;;;;;14.20;99.90;;;;;;5029851;28;19940;-78
2022/07/07 04:05:54;;;;;;;;;;;14.20;99.90;;;;;;5027267;28;19917;-77
2022/07/07 04:08:20;;;;;;;;;;;14.20;99.90;;;;;;5026620;28;20279;-77
2022/07/07 04:10:45;;;;;;;;;;;14.10;99.90;;;;;;5041811;28;19909;-79
2022/07/07 04:13:10;;;;;;;;;;;14.00;99.90;;;;;;5038497;28;20252;-79
2022/07/07 04:15:36;;;;;;;;;;;14.00;99.90;;;;;;5033742;28;19915;-79
2022/07/07 04:18:02;;;;;;;;;;;14.00;99.90;;;;;;5029575;28;19932;-78
2022/07/07 04:20:29;;;;;;;;;;;14.00;99.90;;;;;;5035752;28;20311;-79
2022/07/07 04:22:55;;;;;;;;;;;14.00;99.90;;;;;;5029454;28;19924;-78
2022/07/07 04:25:21;;;;;;;;;;;14.00;99.90;;;;;;5032940;28;19917;-78
2022/07/07 04:27:46;;;;;;;;;;;14.00;99.90;;;;;;5037049;28;19909;-78
2022/07/07 04:30:12;;;;;;;;;;;14.00;99.90;;;;;;5029176;28;20039;-78
2022/07/07 04:32:37;;;;;;;;;;;14.10;99.90;;;;;;5034194;28;20386;-79
2022/07/07 04:35:03;;;;;;;;;;;14.10;99.90;;;;;;5032205;28;19919;-78
2022/07/07 04:37:28;;;;;;;;;;;14.00;99.90;;;;;;5025412;28;19916;-78
2022/07/07 04:39:54;;;;;;;;;;;14.10;99.90;;;;;;5029316;28;19954;-80
2022/07/07 04:42:19;;;;;;;;;;;14.10;99.90;;;;;;5029006;28;20277;-78
2022/07/07 04:44:45;;;;;;;;;;;14.00;99.90;;;;;;5042520;28;19915;-78
2022/07/07 04:47:10;;;;;;;;;;;14.00;99.90;;;;;;5034033;28;19931;-79
2022/07/07 04:49:35;;;;;;;;;;;13.90;99.90;;;;;;5029846;28;20280;-79
2022/07/07 04:52:01;;;;;;;;;;;14.00;99.90;;;;;;5028567;28;19955;-78
2022/07/07 04:54:26;;;;;;;;;;;14.00;99.90;;;;;;5030519;28;19917;-79
2022/07/07 04:56:52;;;;;;;;;;;14.10;99.90;;;;;;5030396;28;19944;-78
2022/07/07 04:59:17;;;;;;;;;;;14.10;99.90;;;;;;5027198;28;19975;-79
2022/07/07 05:01:43;;;;;;;;;;;14.10;99.90;;;;;;5030870;28;19952;-80
2022/07/07 05:04:08;;;;;;;;;;;14.10;99.90;;;;;;5029688;28;19909;-80
2022/07/07 05:06:34;;;;;;;;;;;14.10;99.90;;;;;;5032621;28;20149;-79
2022/07/07 05:08:59;;;;;;;;;;;14.10;99.90;;;;;;5028666;28;20050;-79
2022/07/07 05:11:25;;;;;;;;;;;14.10;99.90;;;;;;5031492;28;19948;-79
2022/07/07 05:13:50;;;;;;;;;;;14.10;99.90;;;;;;5035056;28;19917;-77
2022/07/07 05:16:17;;;;;;;;;;;14.20;99.90;;;;;;5036295;28;19909;-75
2022/07/07 05:18:42;;;;;;;;;;;14.20;99.90;;;;;;5029377;28;19909;-77
2022/07/07 05:21:08;;;;;;;;;;;14.20;99.90;;;;;;5028043;28;20290;-78
2022/07/07 05:23:34;;;;;;;;;;;14.10;99.90;;;;;;5032696;28;19948;-79
2022/07/07 05:25:59;;;;;;;;;;;14.10;99.90;;;;;;5029716;28;20382;-76
2022/07/07 05:28:25;;;;;;;;;;;14.00;99.90;;;;;;5031369;28;19912;-79
2022/07/07 05:30:50;;;;;;;;;;;14.00;99.90;;;;;;5033025;28;19927;-83
2022/07/07 05:33:16;;;;;;;;;;;14.00;99.90;;;;;;5027501;28;19905;-81
2022/07/07 05:35:41;;;;;;;;;;;14.00;99.90;;;;;;5027843;28;20385;-80
2022/07/07 05:38:06;;;;;;;;;;;14.00;99.90;;;;;;5028924;28;19905;-83
2022/07/07 05:40:32;;;;;;;;;;;14.00;99.90;;;;;;5028954;28;19920;-76
2022/07/07 05:42:57;;;;;;;;;;;14.00;99.90;;;;;;5030156;28;19920;-78
2022/07/07 05:45:23;;;;;;;;;;;13.90;99.90;;;;;;5029480;28;20051;-77
2022/07/07 05:47:54;;;;;;;;;;;14.00;99.90;;;;;;5029970;28;19920;-78
2022/07/07 05:50:20;;;;;;;;;;;14.00;99.90;;;;;;5033835;28;19912;-79
2022/07/07 05:52:45;;;;;;;;;;;14.10;99.90;;;;;;5028056;28;19913;-76
2022/07/07 05:55:11;;;;;;;;;;;14.20;99.90;;;;;;5040001;28;19918;-76
2022/07/07 05:57:36;;;;;;;;;;;14.20;99.90;;;;;;5050080;28;19936;-74
2022/07/07 06:00:02;;;;;;;;;;;14.20;99.90;;;;;;5053192;28;20390;-75
2022/07/07 06:02:27;;;;;;;;;;;14.20;99.90;;;;;;5046155;28;19916;-75
2022/07/07 06:04:53;;;;;;;;;;;14.20;99.90;;;;;;5052461;28;19916;-76
2022/07/07 06:07:18;;;;;;;;;;;14.10;99.90;;;;;;5052537;28;19908;-75
2022/07/07 06:09:44;;;;;;;;;;;14.20;99.90;;;;;;5054305;28;20454;-76
2022/07/07 06:12:09;;;;;;;;;;;14.20;99.90;;;;;;5053907;28;19916;-77
2022/07/07 06:14:35;;;;;;;;;;;14.30;99.90;;;;;;5051134;28;20578;-79
2022/07/07 06:17:01;;;;;;;;;;;14.30;99.90;;;;;;5053321;28;19952;-79
2022/07/07 06:19:26;;;;;;;;;;;14.30;99.90;;;;;;5055722;28;19908;-79
2022/07/07 06:21:51;;;;;;;;;;;14.30;99.90;;;;;;5056611;28;20274;-80
2022/07/07 06:24:17;;;;;;;;;;;14.20;99.90;;;;;;5054119;28;20382;-80
2022/07/07 06:26:42;;;;;;;;;;;14.30;99.90;;;;;;5046313;28;19915;-79
2022/07/07 06:29:08;;;;;;;;;;;14.40;99.90;;;;;;5060974;28;19912;-76
2022/07/07 06:31:33;;;;;;;;;;;14.30;99.90;;;;;;5053512;28;20003;-77
2022/07/07 06:33:59;;;;;;;;;;;14.20;99.90;;;;;;5055982;28;19913;-76
2022/07/07 06:36:24;;;;;;;;;;;14.30;99.90;;;;;;5054317;28;19909;-76
2022/07/07 06:38:50;;;;;;;;;;;14.40;99.90;;;;;;5049806;28;19913;-76
2022/07/07 06:41:16;;;;;;;;;;;14.30;99.90;;;;;;5046283;28;19924;-76
2022/07/07 06:43:42;;;;;;;;;;;14.40;99.90;;;;;;5049351;28;20007;-78
2022/07/07 06:46:07;;;;;;;;;;;14.40;99.90;;;;;;5049810;28;20000;-78
2022/07/07 06:48:33;;;;;;;;;;;14.50;99.90;;;;;;5050988;28;19940;-82
2022/07/07 06:50:59;;;;;;;;;;;14.40;99.90;;;;;;5054098;28;19913;-79
2022/07/07 06:53:25;;;;;;;;;;;14.40;99.90;;;;;;5058719;28;19945;-79
2022/07/07 06:55:50;;;;;;;;;;;14.40;99.90;;;;;;5036013;28;20031;-79
2022/07/07 06:58:16;;;;;;;;;;;14.40;99.90;;;;;;5032169;28;19940;-84
2022/07/07 07:00:41;;;;;;;;;;;14.40;99.90;;;;;;5032214;28;19916;-79
2022/07/07 07:03:07;;;;;;;;;;;14.40;99.90;;;;;;5029454;28;19976;-83
2022/07/07 07:05:32;;;;;;;;;;;14.40;99.90;;;;;;5025893;28;20623;-83
2022/07/07 07:07:57;;;;;;;;;;;14.50;99.90;;;;;;5031513;28;19948;-84
2022/07/07 07:10:23;;;;;;;;;;;14.60;99.90;;;;;;5040532;28;19919;-81
2022/07/07 07:12:48;;;;;;;;;;;14.70;99.90;;;;;;5030652;28;19940;-82
2022/07/07 07:15:14;;;;;;;;;;;14.60;99.90;;;;;;5034857;28;20623;-88
2022/07/07 07:17:39;;;;;;;;;;;14.70;99.90;;;;;;5029764;28;20426;-85
2022/07/07 07:20:05;;;;;;;;;;;14.80;99.90;;;;;;5037795;28;19915;-84
2022/07/07 07:22:37;;;;;;;;;;;14.80;99.90;;;;;;5037897;28;19917;-84
2022/07/07 07:25:02;;;;;;;;;;;15.00;99.90;;;;;;5028262;28;19912;-87
2022/07/07 07:27:28;;;;;;;;;;;14.90;99.90;;;;;;5024106;28;20386;-85
2022/07/07 07:29:53;;;;;;;;;;;14.90;99.90;;;;;;5020215;28;20008;-85
2022/07/07 07:32:19;;;;;;;;;;;14.90;99.90;;;;;;5025664;28;19913;-84
2022/07/07 07:34:44;;;;;;;;;;;14.90;99.90;;;;;;5031263;28;20036;-87
2022/07/07 07:37:09;;;;;;;;;;;14.90;99.90;;;;;;5026696;28;20253;-85
2022/07/07 07:39:35;;;;;;;;;;;15.00;99.90;;;;;;5039266;28;19913;-84
2022/07/07 07:42:00;;;;;;;;;;;15.10;99.90;;;;;;5037248;28;19909;-87
2022/07/07 07:47:10;;;;;;;;;;;15.20;99.90;;;;;;5037047;28;19916;-82
2022/07/07 07:49:35;;;;;;;;;;;15.20;99.90;;;;;;5031655;28;19912;-83
2022/07/07 07:52:01;;;;;;;;;;;15.20;99.90;;;;;;5034007;28;20268;-84
2022/07/07 07:54:26;;;;;;;;;;;15.20;99.90;;;;;;5035693;28;20347;-82
2022/07/07 07:56:52;;;;;;;;;;;15.20;99.90;;;;;;5060892;28;20338;-82
2022/07/07 07:59:17;;;;;;;;;;;15.20;99.90;;;;;;5051408;28;20322;-83
2022/07/07 08:01:42;;;;;;;;;;;15.30;99.90;;;;;;5048919;28;19935;-81
2022/07/07 08:04:08;;;;;;;;;;;15.40;99.90;;;;;;5050271;28;20502;-81
2022/07/07 08:06:33;;;;;;;;;;;15.40;99.90;;;;;;5051282;28;19951;-82
2022/07/07 08:08:59;;;;;;;;;;;15.50;99.90;;;;;;5049589;28;19975;-82
2022/07/07 08:11:24;;;;;;;;;;;15.70;99.90;;;;;;5056600;28;19908;-81
2022/07/07 08:13:49;;;;;;;;;;;15.60;99.90;;;;;;5050053;28;19915;-80
2022/07/07 08:16:15;;;;;;;;;;;15.60;99.90;;;;;;5058415;28;19909;-83
2022/07/07 08:18:40;;;;;;;;;;;15.60;99.90;;;;;;5046545;28;21352;-84
2022/07/07 08:21:06;;;;;;;;;;;15.80;99.90;;;;;;5049037;28;20267;-81
2022/07/07 08:23:31;;;;;;;;;;;15.80;99.90;;;;;;5051420;28;19916;-82
2022/07/07 08:25:57;;;;;;;;;;;15.80;99.90;;;;;;5049532;28;19911;-84
2022/07/07 08:28:22;;;;;;;;;;;15.80;99.90;;;;;;5052148;28;19916;-84
2022/07/07 08:30:48;;;;;;;;;;;15.70;99.90;;;;;;5049273;28;19905;-79
2022/07/07 08:33:13;;;;;;;;;;;15.80;99.90;;;;;;5052267;28;19909;-85
2022/07/07 08:35:39;;;;;;;;;;;15.70;99.90;;;;;;5051275;28;19915;-87
2022/07/07 08:38:04;;;;;;;;;;;15.60;99.90;;;;;;5058550;28;19947;-82
2022/07/07 08:40:30;;;;;;;;;;;15.60;99.90;;;;;;5049613;28;19905;-83
2022/07/07 08:42:55;;;;;;;;;;;15.60;99.90;;;;;;5048230;28;19917;-81
2022/07/07 08:45:20;;;;;;;;;;;15.70;99.90;;;;;;5049255;28;19976;-80
2022/07/07 08:47:46;;;;;;;;;;;15.70;99.90;;;;;;5050919;28;19912;-85
2022/07/07 08:50:11;;;;;;;;;;;15.80;99.90;;;;;;5051107;28;19911;-83
2022/07/07 08:52:37;;;;;;;;;;;15.90;99.90;;;;;;5047814;28;19916;-82
2022/07/07 08:55:02;;;;;;;;;;;15.80;99.90;;;;;;5051665;28;19964;-88
2022/07/07 08:57:28;;;;;;;;;;;15.70;99.90;;;;;;5051606;28;20276;-87
2022/07/07 08:59:56;;;;;;;;;;;15.70;99.90;;;;;;5049944;28;20004;-83
2022/07/07 09:02:22;;;;;;;;;;;15.80;99.90;;;;;;5048243;28;20366;-89
2022/07/07 09:04:48;;;;;;;;;;;15.90;99.90;;;;;;5050121;28;19909;-83
2022/07/07 09:07:13;;;;;;;;;;;15.90;99.90;;;;;;5052674;28;20398;-80
2022/07/07 09:09:41;;;;;;;;;;;15.90;99.90;;;;;;5049388;28;20363;-85
2022/07/07 09:12:07;;;;;;;;;;;16.00;99.90;;;;;;5055358;28;19996;-84
2022/07/07 09:14:37;;;;;;;;;;;16.10;99.90;;;;;;5049373;28;19916;-88
2022/07/07 09:17:03;;;;;;;;;;;16.20;99.90;;;;;;5045942;28;19915;-81
2022/07/07 09:19:28;;;;;;;;;;;16.10;99.90;;;;;;5049047;28;19905;-79
2022/07/07 09:21:53;;;;;;;;;;;16.10;99.90;;;;;;5049849;28;19919;-77
2022/07/07 09:24:19;;;;;;;;;;;16.10;99.90;;;;;;5053420;28;20310;-77
2022/07/07 09:26:46;;;;;;;;;;;16.00;99.90;;;;;;5061033;28;19967;-79
2022/07/07 09:29:18;;;;;;;;;;;16.00;99.90;;;;;;5044850;28;20343;-76
2022/07/07 09:31:51;;;;;;;;;;;16.10;99.90;;;;;;5046389;28;19919;-77
2022/07/07 09:34:16;;;;;;;;;;;16.20;99.90;;;;;;5053241;28;19916;-76
2022/07/07 09:39:37;;;;;;;;;;;16.40;99.90;;;;;;5053092;28;19966;-79
2022/07/07 09:42:16;;;;;;;;;;;16.50;99.90;;;;;;5040595;28;19913;-75
2022/07/07 09:44:41;;;;;;;;;;;16.40;99.90;;;;;;5048015;28;19952;-80
2022/07/07 09:47:09;;;;;;;;;;;16.50;99.90;;;;;;5047335;28;20321;-80
2022/07/07 09:49:40;;;;;;;;;;;16.70;99.90;;;;;;5052943;28;19916;-79
2022/07/07 09:52:15;;;;;;;;;;;17.00;99.90;;;;;;5043332;28;19912;-81
2022/07/07 09:54:48;;;;;;;;;;;16.90;99.90;;;;;;5046410;28;19932;-80
2022/07/07 09:57:13;;;;;;;;;;;16.90;99.90;;;;;;5048990;28;19915;-82
2022/07/07 09:59:41;;;;;;;;;;;16.70;99.90;;;;;;5049132;28;19909;-83
2022/07/07 10:02:09;;;;;;;;;;;16.80;99.90;;;;;;5054635;28;19958;-82
2022/07/07 10:04:36;;;;;;;;;;;16.70;99.90;;;;;;5046922;28;19948;-82
2022/07/07 10:07:01;;;;;;;;;;;16.60;99.90;;;;;;5057564;28;20421;-82
2022/07/07 10:09:27;;;;;;;;;;;16.60;99.90;;;;;;5044469;28;19916;-80
2022/07/07 10:11:53;;;;;;;;;;;16.50;99.90;;;;;;5049340;28;19905;-79
2022/07/07 10:14:30;;;;;;;;;;;16.70;99.90;;;;;;5050316;28;19912;-79
2022/07/07 10:16:56;;;;;;;;;;;16.70;99.90;;;;;;5043961;28;20547;-80
2022/07/07 10:19:23;;;;;;;;;;;16.70;99.90;;;;;;5058786;28;19905;-87
2022/07/07 10:21:50;;;;;;;;;;;16.80;99.90;;;;;;5049591;28;19916;-83
2022/07/07 10:24:16;;;;;;;;;;;16.90;99.90;;;;;;5048322;28;19947;-86
2022/07/07 10:26:52;;;;;;;;;;;17.00;99.90;;;;;;5045231;28;19954;-84
2022/07/07 10:29:35;;;;;;;;;;;16.90;99.90;;;;;;5035478;28;19908;-86
2022/07/07 10:32:00;;;;;;;;;;;16.90;99.90;;;;;;5044089;28;19913;-86
2022/07/07 10:34:27;;;;;;;;;;;16.90;99.90;;;;;;5038077;28;19916;-83
2022/07/07 10:36:53;;;;;;;;;;;17.10;99.90;;;;;;5049703;28;19948;-83
2022/07/07 10:39:21;;;;;;;;;;;17.10;99.90;;;;;;5044859;28;19916;-85
2022/07/07 10:41:59;;;;;;;;;;;17.10;99.90;;;;;;5038526;28;19921;-84
2022/07/07 10:44:24;;;;;;;;;;;17.00;99.90;;;;;;5056292;28;20449;-82
2022/07/07 10:47:01;;;;;;;;;;;17.00;99.90;;;;;;5048600;28;19940;-84
2022/07/07 10:49:40;;;;;;;;;;;16.80;99.90;;;;;;5047005;28;19908;-84
2022/07/07 10:52:11;;;;;;;;;;;16.70;99.90;;;;;;5048913;28;20010;-83
2022/07/07 10:54:40;;;;;;;;;;;16.70;99.90;;;;;;5045864;28;19924;-85
2022/07/07 10:57:10;;;;;;;;;;;16.70;99.90;;;;;;5021186;28;19928;-81
2022/07/07 11:00:11;;;;;;;;;;;16.80;99.90;;;;;;5027898;28;19917;-88
2022/07/07 11:02:44;;;;;;;;;;;16.70;99.90;;;;;;4953620;28;19930;-82
2022/07/07 11:05:10;;;;;;;;;;;16.70;99.90;;;;;;5015651;28;20003;-80
2022/07/07 11:07:39;;;;;;;;;;;16.60;99.90;;;;;;5024644;28;20354;-81
2022/07/07 11:10:13;;;;;;;;;;;16.60;99.90;;;;;;5025270;28;20007;-78
2022/07/07 11:12:51;;;;;;;;;;;16.60;99.90;;;;;;5027237;28;19991;-82
2022/07/07 11:15:23;;;;;;;;;;;16.70;99.90;;;;;;5021898;28;19996;-81
2022/07/07 11:17:52;;;;;;;;;;;16.70;99.90;;;;;;5025397;28;20012;-81
2022/07/07 11:20:19;;;;;;;;;;;16.80;99.90;;;;;;5021492;28;20428;-77
2022/07/07 11:22:45;;;;;;;;;;;16.90;99.90;;;;;;5024117;28;20290;-80
2022/07/07 11:25:11;;;;;;;;;;;17.00;99.90;;;;;;5025035;28;19912;-82
2022/07/07 11:27:37;;;;;;;;;;;17.20;99.90;;;;;;5026093;28;19909;-75
2022/07/07 11:30:04;;;;;;;;;;;17.60;99.90;;;;;;5024713;28;20387;-81
2022/07/07 11:32:39;;;;;;;;;;;17.70;99.90;;;;;;5010927;28;19909;-86
2022/07/07 11:35:09;;;;;;;;;;;17.80;99.90;;;;;;5019803;28;19915;-85
2022/07/07 11:37:37;;;;;;;;;;;18.10;99.90;;;;;;5021073;28;19909;-85
2022/07/07 11:40:03;;;;;;;;;;;18.30;99.90;;;;;;5029212;28;20430;-83
2022/07/07 11:42:34;;;;;;;;;;;18.30;99.90;;;;;;5029843;28;19912;-85
2022/07/07 11:44:59;;;;;;;;;;;18.30;99.90;;;;;;5030606;28;20390;-84
2022/07/07 11:47:25;;;;;;;;;;;18.10;99.90;;;;;;5036914;28;19909;-85
2022/07/07 11:49:53;;;;;;;;;;;18.20;99.90;;;;;;5024247;28;20980;-82
2022/07/07 11:52:21;;;;;;;;;;;18.20;99.90;;;;;;5031871;28;19991;-87
2022/07/07 11:54:48;;;;;;;;;;;18.20;99.90;;;;;;5048883;28;19919;-84
2022/07/07 11:57:29;;;;;;;;;;;18.30;99.90;;;;;;5041382;28;19916;-84
2022/07/07 12:00:07;;;;;;;;;;;18.60;99.90;;;;;;5048773;28;20539;-81
2022/07/07 12:02:33;;;;;;;;;;;18.70;99.90;;;;;;5044693;28;19913;-81
2022/07/07 12:04:58;;;;;;;;;;;19.10;99.90;;;;;;5045859;28;20528;-85
2022/07/07 12:07:24;;;;;;;;;;;19.60;99.90;;;;;;5047037;28;20275;-86
2022/07/07 12:09:52;;;;;;;;;;;20.10;99.90;;;;;;5050648;28;20387;-89
2022/07/07 12:12:18;;;;;;;;;;;20.20;99.90;;;;;;5046967;28;20008;-85
2022/07/07 12:14:44;;;;;;;;;;;20.10;99.90;;;;;;5045321;28;19916;-87
2022/07/07 12:17:09;;;;;;;;;;;20.20;99.90;;;;;;5047551;28;19913;-84
2022/07/07 12:19:48;;;;;;;;;;;20.60;99.90;;;;;;5046739;28;19916;-82
2022/07/07 12:22:13;;;;;;;;;;;20.60;99.90;;;;;;5033069;28;19959;-81
2022/07/07 12:24:39;;;;;;;;;;;20.80;99.90;;;;;;5041447;28;19967;-84
2022/07/07 12:27:14;;;;;;;;;;;21.10;99.90;;;;;;5044031;28;19916;-83
2022/07/07 12:29:57;;;;;;;;;;;21.10;99.90;;;;;;5045397;28;20480;-82
2022/07/07 12:32:23;;;;;;;;;;;20.80;99.90;;;;;;5046294;28;19955;-83
2022/07/07 12:34:49;;;;;;;;;;;20.50;99.90;;;;;;5046167;28;19992;-85
2022/07/07 12:37:14;;;;;;;;;;;20.20;99.90;;;;;;5045221;28;20007;-83
2022/07/07 12:39:42;;;;;;;;;;;20.30;99.90;;;;;;5047965;28;19979;-81
2022/07/07 12:42:07;;;;;;;;;;;20.10;99.90;;;;;;5044525;28;19918;-88
2022/07/07 12:44:35;;;;;;;;;;;20.30;99.90;;;;;;5046472;28;19991;-78
2022/07/07 12:47:01;;;;;;;;;;;20.30;99.90;;;;;;5044306;28;19976;-83
2022/07/07 12:49:26;;;;;;;;;;;20.00;99.90;;;;;;5048182;28;19955;-81
2022/07/07 12:51:54;;;;;;;;;;;19.80;99.90;;;;;;5042073;28;19916;-78
2022/07/07 12:54:23;;;;;;;;;;;19.60;99.90;;;;;;5040366;28;19924;-80
2022/07/07 12:56:56;;;;;;;;;;;19.40;99.90;;;;;;5030986;28;19909;-82
2022/07/07 12:59:22;;;;;;;;;;;19.30;99.90;;;;;;5020303;28;20319;-81
2022/07/07 13:01:48;;;;;;;;;;;19.00;99.90;;;;;;5015411;28;19921;-84
2022/07/07 13:04:13;;;;;;;;;;;18.80;99.90;;;;;;5023703;28;19913;-77
2022/07/07 13:06:39;;;;;;;;;;;19.00;99.90;;;;;;5020360;28;19921;-83
2022/07/07 13:09:04;;;;;;;;;;;19.70;99.90;;;;;;5026674;28;19968;-82
2022/07/07 13:11:30;;;;;;;;;;;20.00;99.90;;;;;;5025406;28;20360;-87
2022/07/07 13:13:56;;;;;;;;;;;20.10;99.90;;;;;;5028051;28;19913;-82
2022/07/07 13:16:21;;;;;;;;;;;20.40;99.90;;;;;;5030552;28;19921;-82
2022/07/07 13:18:47;;;;;;;;;;;22.50;99.90;;;;;;5027304;28;19932;-82
2022/07/07 13:21:12;;;;;;;;;;;25.90;94.50;;;;;;5025617;28;19956;-84
2022/07/07 13:23:41;;;;;;;;;;;26.40;89.80;;;;;;5034334;28;20430;-94
2022/07/07 13:26:06;;;;;;;;;;;25.90;85.10;;;;;;5029931;28;19928;-83
2022/07/07 13:28:32;;;;;;;;;;;24.90;88.60;;;;;;5026734;28;20419;-82
2022/07/07 13:30:57;;;;;;;;;;;25.80;90.40;;;;;;5017444;28;19912;-81
2022/07/07 13:33:23;;;;;;;;;;;25.30;89.60;;;;;;5021057;28;19913;-76
2022/07/07 13:36:01;;;;;;;;;;;24.60;92.90;;;;;;5024462;28;20597;-78
2022/07/07 13:38:27;;;;;;;;;;;24.00;94.30;;;;;;5027878;28;19909;-80
2022/07/07 13:40:52;;;;;;;;;;;23.60;94.80;;;;;;5028332;28;19913;-80
2022/07/07 13:43:18;;;;;;;;;;;24.60;92.60;;;;;;5022047;28;19912;-78
2022/07/07 13:45:44;;;;;;;;;;;25.50;90.90;;;;;;5025558;28;19913;-78
2022/07/07 13:48:12;;;;;;;;;;;26.80;84.80;;;;;;5026573;28;19909;-79
2022/07/07 13:50:37;;;;;;;;;;;28.40;75.90;;;;;;5012542;28;19920;-79
2022/07/07 13:53:03;;;;;;;;;;;30.40;69.80;;;;;;5027360;28;19917;-84
2022/07/07 13:55:29;;;;;;;;;;;31.50;61.70;;;;;;5038405;28;19970;-87
2022/07/07 13:57:54;;;;;;;;;;;32.30;58.50;;;;;;5046371;28;19935;-78
2022/07/07 14:00:20;;;;;;;;;;;33.70;56.70;;;;;;5046758;28;19916;-81
2022/07/07 14:02:49;;;;;;;;;;;36.20;52.00;;;;;;5041738;28;19912;-79
2022/07/07 14:05:14;;;;;;;;;;;38.10;46.70;;;;;;5050538;28;20286;-78
2022/07/07 14:07:40;;;;;;;;;;;37.50;46.20;;;;;;5047571;28;19909;-78
2022/07/07 14:10:06;;;;;;;;;;;35.20;49.00;;;;;;5046593;28;19970;-82
2022/07/07 14:12:32;;;;;;;;;;;37.50;47.90;;;;;;5051348;28;19908;-81
2022/07/07 14:14:58;;;;;;;;;;;38.60;43.80;;;;;;5051188;28;19992;-81
2022/07/07 14:17:24;;;;;;;;;;;38.30;43.50;;;;;;5057144;28;20034;-78